createdAt,value
2023-04-02T00:01:03.005Z,99892.78
2023-04-02T00:03:44.810Z,99878.38
2023-04-02T00:06:30.780Z,99884.53
2023-04-02T00:09:22.914Z,99886.56
2023-04-02T00:11:57.896Z,99881.16
2023-04-02T00:14:45.128Z,99885.63
2023-04-02T00:17:12.108Z,99878.25
2023-04-02T00:19:59.879Z,99887.94
2023-04-02T00:22:31.778Z,99874.34
2023-04-02T00:25:07.954Z,99876.88
2023-04-02T00:27:38.641Z,99880.09
2023-04-02T00:30:06.437Z,99900.50
2023-04-02T00:32:38.066Z,99915.09
2023-04-02T00:35:13.458Z,99921.22
2023-04-02T00:37:43.033Z,99925.16
2023-04-02T00:40:32.016Z,99931.16
2023-04-02T00:43:00.692Z,99942.06
2023-04-02T00:45:31.152Z,99945.06
2023-04-02T00:48:19.751Z,99940.88
2023-04-02T00:50:48.833Z,99941.16
2023-04-02T00:53:28.787Z,99946.75
2023-04-02T00:55:59.436Z,99951.50
2023-04-02T00:58:36.876Z,99948.59
2023-04-02T01:01:21.131Z,99951.16
2023-04-02T01:03:59.332Z,99949.25
2023-04-02T01:06:33.923Z,99943.81
2023-04-02T01:09:20.970Z,99953.69
2023-04-02T01:12:16.562Z,99948.72
2023-04-02T01:15:16.906Z,99949.03
2023-04-02T01:18:18.324Z,99951.28
2023-04-02T01:21:10.262Z,99952.88
2023-04-02T01:23:46.196Z,99956.84
2023-04-02T01:29:26.069Z,99955.38
2023-04-02T01:31:59.903Z,99958.25
2023-04-02T01:34:28.961Z,99954.78
2023-04-02T01:37:23.469Z,99953.66
2023-04-02T01:40:35.519Z,99951.28
2023-04-02T01:43:23.912Z,99955.94
2023-04-02T01:45:56.919Z,99948.50
2023-04-02T01:48:37.263Z,99951.94
2023-04-02T01:51:28.633Z,99958.78
2023-04-02T01:53:59.146Z,99958.56
2023-04-02T01:56:31.056Z,99968.53
2023-04-02T01:59:02.131Z,99967.91
2023-04-02T02:01:45.992Z,99969.59
2023-04-02T02:04:13.681Z,99960.94
2023-04-02T02:06:41.183Z,99978.91
2023-04-02T02:09:12.729Z,99978.59
2023-04-02T02:11:39.588Z,99983.06
2023-04-02T02:14:35.777Z,99978.19
2023-04-02T02:17:08.676Z,99980.06
2023-04-02T02:19:55.336Z,99985.69
2023-04-02T02:22:30.644Z,99993.63
2023-04-02T02:28:08.238Z,99980.88
2023-04-02T02:30:43.918Z,99981.91
2023-04-02T02:33:34.866Z,99983.09
2023-04-02T02:36:19.113Z,99978.63
2023-04-02T02:39:13.818Z,99978.34
2023-04-02T02:42:07.022Z,99988.56
2023-04-02T02:44:46.869Z,99982.50
2023-04-02T02:47:32.993Z,99990.59
2023-04-02T02:50:24.657Z,99997.47
2023-04-02T02:52:57.983Z,99993.19
2023-04-02T02:55:31.534Z,99997.31
2023-04-02T02:58:13.184Z,100003.97
2023-04-02T03:00:40.128Z,100009.50
2023-04-02T03:03:15.290Z,100010.97
2023-04-02T03:05:42.768Z,100008.94
2023-04-02T03:08:28.316Z,100006.44
2023-04-02T03:11:16.700Z,100007.19
2023-04-02T03:13:51.635Z,100008.66
2023-04-02T03:16:37.965Z,100018.63
2023-04-02T03:19:50.502Z,100018.69
2023-04-02T03:22:31.814Z,100013.38
2023-04-02T03:25:14.950Z,100020.28
2023-04-02T03:27:49.566Z,100014.44
2023-04-02T03:30:33.889Z,100014.31
2023-04-02T03:33:17.724Z,100014.56
2023-04-02T03:36:25.388Z,100012.56
2023-04-02T03:39:15.153Z,100029.44
2023-04-02T03:41:52.048Z,100036.09
2023-04-02T03:44:31.854Z,100032.63
2023-04-02T03:47:21.175Z,100030.44
2023-04-02T03:50:02.015Z,100035.75
2023-04-02T03:52:31.637Z,100043.28
2023-04-02T03:55:09.702Z,100045.91
2023-04-02T03:58:18.148Z,100047.56
2023-04-02T04:01:00.127Z,100057.34
2023-04-02T04:03:39.396Z,100054.06
2023-04-02T04:06:27.565Z,100053.28
2023-04-02T04:09:22.835Z,100059.78
2023-04-02T04:14:57.711Z,100057.34
2023-04-02T04:17:33.999Z,100063.44
2023-04-02T04:20:19.871Z,100063.03
2023-04-02T04:22:46.651Z,100061.81
2023-04-02T04:25:35.348Z,100066.09
2023-04-02T04:28:09.727Z,100065.69
2023-04-02T04:31:09.400Z,100066.50
2023-04-02T04:34:08.355Z,100076.47
2023-04-02T04:36:46.042Z,100074.41
2023-04-02T04:39:18.571Z,100087.22
2023-04-02T04:41:50.522Z,100086.41
2023-04-02T04:44:24.721Z,100095.16
2023-04-02T04:47:13.429Z,100099.63
2023-04-02T04:50:09.741Z,100110.03
2023-04-02T04:52:44.043Z,100113.88
2023-04-02T04:55:48.801Z,100116.13
2023-04-02T04:58:22.806Z,100121.31
2023-04-02T05:01:14.519Z,100123.53
2023-04-02T05:03:56.454Z,100119.84
2023-04-02T05:06:40.643Z,100130.84
2023-04-02T05:09:33.088Z,100140.59
2023-04-02T05:12:16.810Z,100143.84
2023-04-02T05:15:09.584Z,100151.13
2023-04-02T05:17:47.528Z,100153.44
2023-04-02T05:20:22.588Z,100151.19
2023-04-02T05:23:14.799Z,100161.81
2023-04-02T05:26:23.392Z,100151.06
2023-04-02T05:29:17.335Z,100156.16
2023-04-02T05:32:06.111Z,100154.75
2023-04-02T05:34:42.498Z,100160.19
2023-04-02T05:37:24.427Z,100176.72
2023-04-02T05:40:05.647Z,100177.94
2023-04-02T05:42:37.199Z,100179.19
2023-04-02T05:45:34.342Z,100170.00
2023-04-02T05:48:07.483Z,100169.38
2023-04-02T05:50:37.777Z,100163.47
2023-04-02T05:53:13.237Z,100162.66
2023-04-02T05:55:52.677Z,100162.84
2023-04-02T05:58:36.325Z,100161.63
2023-04-02T06:01:25.404Z,100179.97
2023-04-02T06:04:06.056Z,100166.75
2023-04-02T06:06:41.928Z,100175.91
2023-04-02T06:09:37.719Z,100170.19
2023-04-02T06:12:32.179Z,100174.06
2023-04-02T06:14:59.196Z,100183.66
2023-04-02T06:17:25.978Z,100181.63
2023-04-02T06:20:01.826Z,100182.59
2023-04-02T06:22:37.524Z,100187.28
2023-04-02T06:25:38.784Z,100195.44
2023-04-02T06:28:07.376Z,100200.53
2023-04-02T06:30:38.007Z,100201.13
2023-04-02T06:33:05.512Z,100209.09
2023-04-02T06:35:36.081Z,100214.78
2023-04-02T06:38:22.778Z,100215.00
2023-04-02T06:40:59.993Z,100223.34
2023-04-02T06:43:55.653Z,100237.22
2023-04-02T06:46:30.998Z,100242.69
2023-04-02T06:49:25.985Z,100257.38
2023-04-02T06:51:57.218Z,100268.03
2023-04-02T06:54:23.979Z,100273.00
2023-04-02T06:56:57.228Z,100279.09
2023-04-02T06:59:25.251Z,100287.84
2023-04-02T07:02:05.710Z,100289.47
2023-04-02T07:04:33.670Z,100288.78
2023-04-02T07:07:03.204Z,100290.50
2023-04-02T07:09:29.994Z,100287.50
2023-04-02T07:11:56.761Z,100286.66
2023-04-02T07:14:25.871Z,100305.78
2023-04-02T07:17:01.775Z,100307.22
2023-04-02T07:19:29.577Z,100317.03
2023-04-02T07:22:05.089Z,100319.25
2023-04-02T07:24:31.865Z,100321.66
2023-04-02T07:27:01.647Z,100327.81
2023-04-02T07:29:31.042Z,100329.03
2023-04-02T07:31:58.062Z,100338.78
2023-04-02T07:34:27.696Z,100347.16
2023-04-02T07:36:54.492Z,100344.31
2023-04-02T07:39:23.519Z,100347.97
2023-04-02T07:42:13.619Z,100359.19
2023-04-02T07:44:41.353Z,100367.53
2023-04-02T07:47:11.185Z,100371.97
2023-04-02T07:49:38.108Z,100369.16
2023-04-02T07:52:05.070Z,100375.66
2023-04-02T07:54:31.903Z,100366.69
2023-04-02T07:56:58.739Z,100379.94
2023-04-02T07:59:25.488Z,100378.31
2023-04-02T08:01:53.248Z,100387.50
2023-04-02T08:04:23.384Z,100389.91
2023-04-02T08:06:50.466Z,100403.19
2023-04-02T08:09:24.674Z,100394.78
2023-04-02T08:11:51.451Z,100407.47
2023-04-02T08:14:24.027Z,100402.16
2023-04-02T08:16:53.567Z,100409.28
2023-04-02T08:19:30.272Z,100410.72
2023-04-02T08:22:00.896Z,100426.78
2023-04-02T08:24:27.814Z,100417.66
2023-04-02T08:26:54.759Z,100425.78
2023-04-02T08:29:44.096Z,100427.63
2023-04-02T08:32:14.491Z,100425.19
2023-04-02T08:34:41.482Z,100433.53
2023-04-02T08:37:11.972Z,100439.06
2023-04-02T08:39:43.587Z,100436.59
2023-04-02T08:42:31.609Z,100445.59
2023-04-02T08:45:30.849Z,100444.75
2023-04-02T08:47:58.580Z,100438.25
2023-04-02T08:50:35.751Z,100442.50
2023-04-02T08:53:10.386Z,100442.50
2023-04-02T08:55:56.971Z,100447.38
2023-04-02T08:58:49.942Z,100448.81
2023-04-02T09:01:42.746Z,100454.72
2023-04-02T09:04:20.931Z,100457.53
2023-04-02T09:07:07.257Z,100454.91
2023-04-02T09:09:37.944Z,100451.81
2023-04-02T09:12:21.204Z,100454.47
2023-04-02T09:15:38.717Z,100454.13
2023-04-02T09:18:18.252Z,100458.69
2023-04-02T09:20:46.027Z,100460.16
2023-04-02T09:23:25.909Z,100464.78
2023-04-02T09:26:04.563Z,100469.94
2023-04-02T09:28:47.900Z,100466.84
2023-04-02T09:31:32.805Z,100475.84
2023-04-02T09:34:23.848Z,100477.22
2023-04-02T09:36:50.937Z,100483.50
2023-04-02T09:39:20.716Z,100485.13
2023-04-02T09:41:55.841Z,100491.03
2023-04-02T09:44:30.115Z,100491.09
2023-04-02T09:47:27.635Z,100494.13
2023-04-02T09:50:14.255Z,100490.78
2023-04-02T09:52:41.057Z,100484.22
2023-04-02T09:55:20.197Z,100487.25
2023-04-02T09:57:53.879Z,100489.41
2023-04-02T10:00:35.582Z,100492.69
2023-04-02T10:03:30.029Z,100495.34
2023-04-02T10:06:14.492Z,100493.53
2023-04-02T10:08:43.765Z,100503.75
2023-04-02T10:11:20.092Z,100498.59
2023-04-02T10:13:53.149Z,100500.69
2023-04-02T10:16:19.963Z,100501.09
2023-04-02T10:18:57.195Z,100502.53
2023-04-02T10:21:47.311Z,100505.84
2023-04-02T10:24:24.098Z,100513.88
2023-04-02T10:27:28.875Z,100508.94
2023-04-02T10:30:00.894Z,100501.25
2023-04-02T10:32:35.545Z,100507.78
2023-04-02T10:35:19.835Z,100508.06
2023-04-02T10:37:48.749Z,100509.59
2023-04-02T10:40:28.240Z,100505.94
2023-04-02T10:43:37.231Z,100504.47
2023-04-02T10:46:26.951Z,100504.31
2023-04-02T10:48:56.613Z,100511.38
2023-04-02T10:51:32.312Z,100505.53
2023-04-02T10:54:20.581Z,100501.25
2023-04-02T10:56:51.415Z,100487.81
2023-04-02T10:59:21.350Z,100486.75
2023-04-02T11:01:49.987Z,100480.47
2023-04-02T11:04:27.080Z,100474.13
2023-04-02T11:07:11.089Z,100469.63
2023-04-02T11:09:53.193Z,100466.97
2023-04-02T11:12:33.561Z,100470.06
2023-04-02T11:15:01.078Z,100480.31
2023-04-02T11:17:28.783Z,100479.69
2023-04-02T11:19:56.898Z,100473.38
2023-04-02T11:22:32.371Z,100483.00
2023-04-02T11:25:22.985Z,100481.41
2023-04-02T11:27:53.949Z,100476.31
2023-04-02T11:30:27.090Z,100474.25
2023-04-02T11:32:53.942Z,100484.88
2023-04-02T11:35:39.094Z,100486.13
2023-04-02T11:38:12.758Z,100477.97
2023-04-02T11:40:52.093Z,100479.44
2023-04-02T11:43:36.670Z,100478.22
2023-04-02T11:46:28.114Z,100476.13
2023-04-02T11:48:55.180Z,100474.88
2023-04-02T11:51:22.894Z,100470.81
2023-04-02T11:54:00.509Z,100478.09
2023-04-02T11:56:35.003Z,100473.81
2023-04-02T11:59:10.395Z,100473.25
2023-04-02T12:01:57.615Z,100470.94
2023-04-02T12:04:54.454Z,100470.97
2023-04-02T12:08:06.808Z,100478.56
2023-04-02T12:11:02.350Z,100482.00
2023-04-02T12:13:44.487Z,100495.81
2023-04-02T12:19:03.986Z,100503.44
2023-04-02T12:21:31.043Z,100510.75
2023-04-02T12:24:02.468Z,100508.13
2023-04-02T12:27:14.278Z,100505.72
2023-04-02T12:29:46.698Z,100518.34
2023-04-02T12:32:29.956Z,100511.00
2023-04-02T12:35:25.662Z,100505.91
2023-04-02T12:38:14.041Z,100506.31
2023-04-02T12:40:51.153Z,100507.34
2023-04-02T12:43:47.856Z,100502.78
2023-04-02T12:46:15.198Z,100501.91
2023-04-02T12:48:42.532Z,100500.31
2023-04-02T12:51:10.758Z,100505.81
2023-04-02T12:53:52.796Z,100500.38
2023-04-02T12:56:23.809Z,100513.88
2023-04-02T12:59:00.790Z,100517.31
2023-04-02T13:01:29.991Z,100515.25
2023-04-02T13:04:12.389Z,100513.59
2023-04-02T13:09:36.080Z,100514.22
2023-04-02T13:12:10.177Z,100508.72
2023-04-02T13:14:38.102Z,100501.38
2023-04-02T13:17:54.984Z,100498.25
2023-04-02T13:23:35.218Z,100495.97
2023-04-02T13:26:23.479Z,100506.47
2023-04-02T13:29:02.177Z,100514.47
2023-04-02T13:31:32.994Z,100516.72
2023-04-02T13:33:59.784Z,100516.50
2023-04-02T13:36:33.013Z,100520.97
2023-04-02T13:39:11.991Z,100524.41
2023-04-02T13:41:56.037Z,100516.47
2023-04-02T13:44:37.305Z,100522.09
2023-04-02T13:47:07.092Z,100517.25
2023-04-02T13:49:33.968Z,100520.28
2023-04-02T13:52:02.706Z,100528.66
2023-04-02T13:54:51.192Z,100529.34
2023-04-02T13:57:19.381Z,100522.09
2023-04-02T13:59:46.196Z,100523.06
2023-04-02T14:02:19.408Z,100516.63
2023-04-02T14:04:59.580Z,100513.78
2023-04-02T14:08:05.724Z,100497.75
2023-04-02T14:11:09.388Z,100492.31
2023-04-02T14:14:06.034Z,100484.78
2023-04-02T14:16:52.957Z,100493.31
2023-04-02T14:19:43.961Z,100496.97
2023-04-02T14:22:41.421Z,100507.44
2023-04-02T14:25:25.601Z,100503.13
2023-04-02T14:28:09.107Z,100501.06
2023-04-02T14:31:07.475Z,100488.69
2023-04-02T14:33:43.336Z,100478.06
2023-04-02T14:36:19.313Z,100468.94
2023-04-02T14:38:52.233Z,100461.19
2023-04-02T14:41:40.390Z,100471.78
2023-04-02T14:44:08.893Z,100464.47
2023-04-02T14:46:39.876Z,100472.66
2023-04-02T14:49:33.634Z,100484.69
2023-04-02T14:52:05.574Z,100486.47
2023-04-02T14:54:37.547Z,100482.81
2023-04-02T14:57:07.406Z,100472.44
2023-04-02T15:03:13.999Z,100463.28
2023-04-02T15:05:51.192Z,100453.72
2023-04-02T15:08:42.761Z,100459.41
2023-04-02T15:11:30.092Z,100463.91
2023-04-02T15:14:10.254Z,100471.84
2023-04-02T15:16:47.389Z,100479.19
2023-04-02T15:19:17.294Z,100470.84
2023-04-02T15:22:08.169Z,100471.88
2023-04-02T15:25:02.262Z,100463.06
2023-04-02T15:28:00.152Z,100459.59
2023-04-02T15:30:58.120Z,100462.88
2023-04-02T15:33:37.999Z,100459.22
2023-04-02T15:36:10.574Z,100462.66
2023-04-02T15:39:03.851Z,100467.53
2023-04-02T15:41:46.461Z,100459.22
2023-04-02T15:44:19.351Z,100470.63
2023-04-02T15:47:06.604Z,100474.72
2023-04-02T15:49:55.883Z,100478.00
2023-04-02T15:52:48.700Z,100475.72
2023-04-02T15:58:26.173Z,100484.72
2023-04-02T16:01:06.168Z,100482.47
2023-04-02T16:04:02.170Z,100479.41
2023-04-02T16:06:51.463Z,100474.09
2023-04-02T16:09:28.796Z,100486.31
2023-04-02T16:12:25.852Z,100485.72
2023-04-02T16:14:59.417Z,100489.78
2023-04-02T16:17:36.669Z,100483.28
2023-04-02T16:20:18.198Z,100489.19
2023-04-02T16:23:07.117Z,100485.72
2023-04-02T16:26:32.006Z,100484.88
2023-04-02T16:29:53.324Z,100493.25
2023-04-02T16:32:52.856Z,100480.44
2023-04-02T16:35:54.155Z,100480.63
2023-04-02T16:38:44.278Z,100482.25
2023-04-02T16:41:29.990Z,100479.81
2023-04-02T16:44:17.144Z,100486.13
2023-04-02T16:47:25.193Z,100480.03
2023-04-02T16:50:01.547Z,100487.75
2023-04-02T16:52:58.852Z,100485.72
2023-04-02T16:56:01.565Z,100486.53
2023-04-02T16:59:27.448Z,100487.13
2023-04-02T17:02:45.441Z,100488.31
2023-04-02T17:05:32.648Z,100479.16
2023-04-02T17:08:37.430Z,100485.84
2023-04-02T17:11:40.244Z,100482.19
2023-04-02T17:14:59.871Z,100479.91
2023-04-02T17:17:29.859Z,100479.53
2023-04-02T17:20:13.048Z,100486.66
2023-04-02T17:22:55.970Z,100475.88
2023-04-02T17:25:41.154Z,100482.56
2023-04-02T17:28:16.144Z,100485.81
2023-04-02T17:31:04.693Z,100488.03
2023-04-02T17:33:49.120Z,100487.84
2023-04-02T17:36:42.428Z,100492.97
2023-04-02T17:39:47.230Z,100497.03
2023-04-02T17:42:52.010Z,100496.00
2023-04-02T17:45:48.765Z,100497.94
2023-04-02T17:48:46.174Z,100504.63
2023-04-02T17:54:54.002Z,100503.44
2023-04-02T17:57:49.152Z,100515.13
2023-04-02T18:00:39.127Z,100510.78
2023-04-02T18:03:39.047Z,100518.19
2023-04-02T18:06:25.239Z,100523.69
2023-04-02T18:09:06.015Z,100527.72
2023-04-02T18:12:18.065Z,100530.94
2023-04-02T18:15:06.081Z,100533.16
2023-04-02T18:17:46.048Z,100537.41
2023-04-02T18:20:48.763Z,100543.91
2023-04-02T18:23:52.396Z,100543.47
2023-04-02T18:26:59.763Z,100544.84
2023-04-02T18:30:05.578Z,100555.66
2023-04-02T18:32:32.371Z,100562.94
2023-04-02T18:35:31.363Z,100578.50
2023-04-02T18:38:32.236Z,100571.69
2023-04-02T18:41:51.912Z,100568.78
2023-04-02T18:44:46.071Z,100566.72
2023-04-02T18:47:21.408Z,100564.72
2023-04-02T18:50:18.871Z,100563.34
2023-04-02T18:52:55.866Z,100565.72
2023-04-02T18:55:34.090Z,100576.91
2023-04-02T18:58:24.344Z,100582.13
2023-04-02T19:00:54.665Z,100592.44
2023-04-02T19:03:40.488Z,100592.00
2023-04-02T19:06:32.713Z,100597.44
2023-04-02T19:09:48.483Z,100599.75
2023-04-02T19:12:34.088Z,100602.34
2023-04-02T19:15:24.543Z,100611.78
2023-04-02T19:18:55.772Z,100610.97
2023-04-02T19:22:01.949Z,100615.16
2023-04-02T19:24:57.004Z,100617.31
2023-04-02T19:27:57.124Z,100621.91
2023-04-02T19:30:51.857Z,100622.06
2023-04-02T19:34:02.292Z,100630.53
2023-04-02T19:40:17.832Z,100629.03
2023-04-02T19:46:13.745Z,100638.00
2023-04-02T19:51:54.163Z,100638.13
2023-04-02T19:57:44.154Z,100654.72
2023-04-02T20:00:24.715Z,100652.50
2023-04-02T20:02:54.984Z,100658.59
2023-04-02T20:05:35.988Z,100657.78
2023-04-02T20:08:02.983Z,100665.06
2023-04-02T20:10:41.657Z,100665.06
2023-04-02T20:13:17.621Z,100657.44
2023-04-02T20:16:09.375Z,100660.16
2023-04-02T20:18:43.452Z,100663.44
2023-04-02T20:21:11.434Z,100666.59
2023-04-02T20:23:46.877Z,100670.25
2023-04-02T20:26:14.154Z,100656.63
2023-04-02T20:28:56.065Z,100675.91
2023-04-02T20:31:31.026Z,100678.63
2023-04-02T20:34:48.292Z,100687.97
2023-04-02T20:37:17.011Z,100691.28
2023-04-02T20:40:19.600Z,100691.91
2023-04-02T20:42:48.878Z,100691.56
2023-04-02T20:45:45.715Z,100688.47
2023-04-02T20:48:37.444Z,100700.28
2023-04-02T20:51:29.619Z,100692.25
2023-04-02T20:53:59.235Z,100701.84
2023-04-02T20:56:41.491Z,100694.59
2023-04-02T20:59:38.985Z,100705.31
2023-04-02T21:02:12.749Z,100700.00
2023-04-02T21:04:50.209Z,100699.72
2023-04-02T21:07:19.973Z,100698.91
2023-04-02T21:09:49.888Z,100700.28
2023-04-02T21:12:16.709Z,100704.66
2023-04-02T21:14:49.433Z,100703.41
2023-04-02T21:17:19.367Z,100703.19
2023-04-02T21:19:53.183Z,100714.63
2023-04-02T21:22:33.234Z,100725.97
2023-04-02T21:25:05.882Z,100715.31
2023-04-02T21:27:40.621Z,100722.09
2023-04-02T21:30:08.842Z,100713.63
2023-04-02T21:32:35.725Z,100706.59
2023-04-02T21:35:02.523Z,100711.16
2023-04-02T21:37:41.218Z,100705.00
2023-04-02T21:40:17.528Z,100711.84
2023-04-02T21:42:44.539Z,100705.31
2023-04-02T21:45:14.951Z,100709.16
2023-04-02T21:47:46.894Z,100708.97
2023-04-02T21:50:20.553Z,100705.94
2023-04-02T21:52:47.405Z,100706.66
2023-04-02T21:55:14.280Z,100702.19
2023-04-02T21:57:47.871Z,100695.78
2023-04-02T22:00:19.084Z,100702.22
2023-04-02T22:02:55.868Z,100691.88
2023-04-02T22:05:41.448Z,100694.19
2023-04-02T22:08:16.330Z,100695.09
2023-04-02T22:10:51.249Z,100696.09
2023-04-02T22:19:20.321Z,100690.41
2023-04-02T22:21:56.627Z,100691.88
2023-04-02T22:24:40.508Z,100695.44
2023-04-02T22:27:21.819Z,100689.78
2023-04-02T22:30:21.961Z,100692.41
2023-04-02T22:32:58.254Z,100697.00
2023-04-02T22:35:25.455Z,100699.16
2023-04-02T22:38:02.438Z,100700.50
2023-04-02T22:40:41.187Z,100699.06
2023-04-02T22:48:39.857Z,100696.91
2023-04-02T22:54:08.277Z,100697.25
2023-04-02T22:56:35.138Z,100703.06
2023-04-02T22:59:03.744Z,100699.34
2023-04-02T23:01:35.619Z,100693.25
2023-04-02T23:04:14.178Z,100686.41
2023-04-02T23:06:42.324Z,100693.75
2023-04-02T23:09:09.090Z,100690.34
2023-04-02T23:09:41.999Z,100700.88
2023-04-02T23:11:35.954Z,100692.78
2023-04-02T23:14:02.722Z,100692.78
2023-04-02T23:16:41.080Z,100685.41
2023-04-02T23:19:28.256Z,100685.56
2023-04-02T23:21:55.214Z,100688.03
2023-04-02T23:24:21.988Z,100692.06
2023-04-02T23:26:48.896Z,100685.22
2023-04-02T23:29:17.376Z,100680.34
2023-04-02T23:32:10.974Z,100682.50
2023-04-02T23:34:43.956Z,100683.56
2023-04-02T23:37:15.889Z,100689.03
2023-04-02T23:39:51.282Z,100685.94
2023-04-02T23:45:02.070Z,100684.56
2023-04-02T23:47:33.306Z,100679.00
2023-04-02T23:50:00.068Z,100677.63
2023-04-02T23:52:39.084Z,100683.81
2023-04-02T23:55:10.193Z,100684.78
2023-04-02T23:57:38.544Z,100677.13
